Details From NZAA - Auckland International
To YPAD - Adelaide Intl
Flight Number -
Tags Decoded
Created
Modified
Stats Distance 1,767 nm / 3,273 km
Max Altitude 0 ft / 0 m
Waypoints 3
Social Downloads 0
Likes 0
Share VATSIM

Download

Looking for another format? Having issues loading an existing format? Contact us
Advertisement - Login to hide

Notes

Decoded

Route

NZAA LAKES YPAD

ID Type Via Altitude Latitude Longitude Leg Dist Tot Dist Heading (true) Name
O NZAA APT - 0 ft / 0 m -37.01438˚ 174.77090˚ - 0 nm - -
LAKES FIX - 0 ft / 0 m -35.58000˚ 139.01778˚ 1722 nm 1722 nm 262° / 284° -
O YPAD APT - 0 ft / 0 m -34.94168˚ 138.54233˚ 44 nm 1767 nm 329° / 329° -

Altitude Profile

Advertisement - Login to hide

Weather


0- 5 10 15 20 25 30 35+ Temperature / ° C

Clouds and Precipitation
Forecast for 2017-12-19 00:00 UTC. Updated 2 hours ago

Ground ~20,000 ft ~40,000 ft Winds

NZAA

Details ICAO NZAA (AKL)
Name Auckland International
Region New Zealand and Antarctica
Timezone Pacific/Auckland (UTC+13.0)
Stats Elevation 23 ft / 7 m (AMSL)
Location -37.010794° 174.787331°
Runways 2
Magnetic Variation 19.834° E

METAR

NZAA 182100Z AUTO 24012KT 9999 BKN044/// 22/13 Q1011 NOSIG

Decode

TAF

TAF AMD NZAA 181544Z 1815/1912 24005KT 9999 SCT018 BKN030 FM182300 26015KT 9999 FEW030 BECMG 1908/1910 27005KT

Decode

Departure Runways

ID Width Length Bearing (true) Bearing (mag) Surface Threshold Offset Overrun Length
05L 157 ft / 48 m 10,844 ft / 3,305 m 70.91° 51.08° Concrete 1,240 ft / 378 m 460 ft / 140 m
05R 152 ft / 46 m 12,085 ft / 3,684 m 70.96° 51.13° Concrete 1,270 ft / 387 m 0 ft / 0 m
23L 152 ft / 46 m 12,085 ft / 3,684 m 250.94° 231.11° Concrete 0 ft / 0 m 0 ft / 0 m
23R 157 ft / 48 m 10,844 ft / 3,305 m 250.89° 231.06° Concrete 1,060 ft / 323 m 0 ft / 0 m

YPAD

Details ICAO YPAD (ADL)
Name Adelaide Intl
Region Australia
Timezone Australia/Adelaide (UTC+10.5)
Stats Elevation 20 ft / 6 m (AMSL)
Location -34.947439° 138.529850°
Runways 2
Magnetic Variation 7.927° E

METAR

YPAD 182100Z 27009KT 9999 FEW015 BKN065 21/19 Q1001 NOSIG

Decode

TAF

TAF AMD TAF AMD YPAD 181803Z 1818/1924 35014KT 9999 -SHRA SCT020 SCT040 FM182200 30010KT CAVOK FM190600 25014KT CAVOK FM191600 26012KT 9999 -SHRA BKN020

Decode

Destination Runways

ID Width Length Bearing (true) Bearing (mag) Surface Threshold Offset Overrun Length
05 151 ft / 46 m 10,173 ft / 3,101 m 50.14° 42.21° Asphalt 518 ft / 158 m 0 ft / 0 m
12 151 ft / 46 m 5,414 ft / 1,650 m 123.61° 115.68° Asphalt 0 ft / 0 m 0 ft / 0 m
23 151 ft / 46 m 10,173 ft / 3,101 m 230.13° 222.20° Asphalt 0 ft / 0 m 203 ft / 62 m
30 151 ft / 46 m 5,414 ft / 1,650 m 303.60° 295.67° Asphalt 0 ft / 0 m 0 ft / 0 m

Approach Navaids

Runway Type Ident Frequency Range Bearing (true) Bearing (mag) Slope Elevation
23 Localiser IAD 109.70 MHz 18 nm / 33 km 230.13° 222.20° - 20 ft / 6 m (AMSL)
23 Glidescope IAD 109.70 MHz 10 nm / 19 km 230.13° 222.21° 3.00° 20 ft / 6 m (AMSL)

Popular Alternatives